Terminal Aerodrome Forecast
Issued by NWS

Home | Current Version | Previous Version | Text Only | Print | Product List | Glossary On
Versions: 1 2 3 4 5 6 7 8 9 10 11 12 13
238
FTUS43 KMQT 161738
TAFSAW
TAF
KSAW 161738Z 1618/1718 22013KT P6SM SCT030 BKN200
     FM170000 21006KT P6SM FEW200
     FM170300 21008KT P6SM FEW200 WS010/24045KT
     FM171000 23009KT P6SM FEW200=

USA.gov is the U.S. government's official web portal to all federal, state and local government web resources and services.